createdAt,value
2022-08-05T00:01:35.532Z,18.39
2022-08-05T00:04:05.187Z,18.39
2022-08-05T00:06:36.405Z,18.34
2022-08-05T00:09:13.046Z,18.34
2022-08-05T00:11:48.325Z,18.36
2022-08-05T00:14:17.719Z,18.32
2022-08-05T00:16:52.984Z,18.31
2022-08-05T00:19:23.278Z,18.28
2022-08-05T00:21:54.064Z,18.28
2022-08-05T00:24:24.554Z,18.30
2022-08-05T00:26:53.475Z,18.26
2022-08-05T00:29:22.587Z,18.23
2022-08-05T00:32:10.278Z,18.28
2022-08-05T00:34:53.186Z,18.22
2022-08-05T00:37:24.700Z,18.22
2022-08-05T00:39:58.114Z,18.19
2022-08-05T00:42:39.821Z,18.17
2022-08-05T00:45:11.611Z,18.19
2022-08-05T00:47:56.528Z,18.23
2022-08-05T00:50:25.332Z,18.25
2022-08-05T00:52:55.049Z,18.26
2022-08-05T00:55:34.047Z,18.30
2022-08-05T00:58:14.327Z,18.26
2022-08-05T01:00:42.221Z,18.25
2022-08-05T01:03:22.391Z,18.22
2022-08-05T01:05:51.814Z,18.21
2022-08-05T01:08:40.760Z,18.21
2022-08-05T01:11:37.000Z,18.20
2022-08-05T01:14:32.953Z,18.19
2022-08-05T01:17:25.838Z,18.17
2022-08-05T01:20:27.613Z,18.14
2022-08-05T01:23:45.913Z,18.20
2022-08-05T01:27:19.505Z,18.20
2022-08-05T01:30:03.357Z,18.17
2022-08-05T01:32:39.012Z,18.18
2022-08-05T01:35:51.240Z,18.25
2022-08-05T01:38:07.027Z,18.28
2022-08-05T01:40:35.311Z,18.28
2022-08-05T01:43:04.189Z,18.25
2022-08-05T01:45:34.706Z,18.22
2022-08-05T01:48:04.228Z,18.22
2022-08-05T01:50:41.599Z,18.24
2022-08-05T01:53:58.126Z,18.22
2022-08-05T01:58:10.294Z,18.20
2022-08-05T01:59:08.744Z,18.18
2022-08-05T02:01:39.816Z,18.18
2022-08-05T02:04:11.039Z,18.20
2022-08-05T02:06:39.571Z,18.25
2022-08-05T02:09:08.283Z,18.25
2022-08-05T02:11:55.548Z,18.25
2022-08-05T02:14:49.567Z,18.18
2022-08-05T02:18:31.343Z,18.13
2022-08-05T02:20:58.755Z,18.07
2022-08-05T02:23:35.730Z,18.04
2022-08-05T02:26:06.161Z,18.02
2022-08-05T02:28:45.729Z,17.98
2022-08-05T02:31:26.678Z,17.94
2022-08-05T02:34:04.857Z,17.89
2022-08-05T02:36:36.520Z,17.87
2022-08-05T02:39:10.240Z,17.87
2022-08-05T02:41:57.615Z,17.88
2022-08-05T02:44:29.224Z,17.88
2022-08-05T02:47:00.959Z,17.87
2022-08-05T02:49:37.707Z,17.87
2022-08-05T02:52:30.671Z,17.89
2022-08-05T02:55:05.584Z,17.89
2022-08-05T02:58:10.102Z,17.89
2022-08-05T03:00:29.972Z,17.86
2022-08-05T03:02:58.734Z,17.89
2022-08-05T03:06:56.816Z,17.89
2022-08-05T03:08:16.596Z,17.89
2022-08-05T03:11:54.329Z,17.88
2022-08-05T03:13:51.758Z,17.87
2022-08-05T03:16:22.486Z,17.88
2022-08-05T03:18:50.116Z,17.87
2022-08-05T03:21:17.490Z,17.86
2022-08-05T03:23:45.634Z,17.85
2022-08-05T03:26:30.928Z,17.85
2022-08-05T03:29:00.757Z,17.83
2022-08-05T03:31:55.791Z,17.83
2022-08-05T03:34:17.969Z,17.83
2022-08-05T03:36:45.890Z,17.82
2022-08-05T03:39:26.670Z,17.82
2022-08-05T03:41:56.252Z,17.79
2022-08-05T03:44:25.413Z,17.79
2022-08-05T03:46:56.679Z,17.79
2022-08-05T03:49:24.062Z,17.77
2022-08-05T03:52:37.259Z,17.77
2022-08-05T03:56:04.251Z,17.77
2022-08-05T03:58:00.777Z,17.82
2022-08-05T04:00:32.196Z,17.82
2022-08-05T04:03:04.659Z,17.80
2022-08-05T04:05:36.302Z,17.81
2022-08-05T04:08:29.750Z,17.83
2022-08-05T04:11:03.221Z,17.80
2022-08-05T04:13:50.137Z,17.76
2022-08-05T04:16:24.287Z,17.75
2022-08-05T04:18:54.752Z,17.76
2022-08-05T04:22:08.748Z,17.74
2022-08-05T04:24:18.663Z,17.69
2022-08-05T04:26:47.290Z,17.66
2022-08-05T04:29:14.526Z,17.64
2022-08-05T04:31:43.026Z,17.64
2022-08-05T04:34:19.010Z,17.62
2022-08-05T04:36:58.378Z,17.65
2022-08-05T04:39:25.717Z,17.65
2022-08-05T04:41:55.559Z,17.67
2022-08-05T04:44:30.217Z,17.67
2022-08-05T04:46:59.709Z,17.67
2022-08-05T04:49:38.965Z,17.66
2022-08-05T04:52:16.520Z,17.67
2022-08-05T04:54:44.009Z,17.68
2022-08-05T04:57:11.237Z,17.66
2022-08-05T04:59:40.843Z,17.64
2022-08-05T05:02:36.741Z,17.65
2022-08-05T05:05:02.264Z,17.68
2022-08-05T05:07:35.256Z,17.69
2022-08-05T05:10:06.301Z,17.73
2022-08-05T05:12:34.009Z,17.75
2022-08-05T05:15:06.073Z,17.75
2022-08-05T05:17:57.128Z,17.77
2022-08-05T05:20:28.753Z,17.81
2022-08-05T05:23:08.473Z,17.84
2022-08-05T05:25:47.854Z,17.87
2022-08-05T05:28:15.142Z,17.91
2022-08-05T05:30:42.977Z,17.95
2022-08-05T05:33:17.696Z,17.95
2022-08-05T05:35:50.707Z,17.95
2022-08-05T05:38:26.852Z,17.94
2022-08-05T05:40:57.053Z,17.92
2022-08-05T05:43:56.477Z,17.89
2022-08-05T05:46:17.768Z,17.85
2022-08-05T05:48:47.992Z,17.84
2022-08-05T05:51:24.726Z,17.80
2022-08-05T05:53:58.832Z,17.78
2022-08-05T05:56:34.420Z,17.76
2022-08-05T05:59:07.776Z,17.75
2022-08-05T06:01:57.809Z,17.77
2022-08-05T06:04:25.676Z,17.82
2022-08-05T06:06:52.885Z,17.85
2022-08-05T06:09:35.356Z,17.84
2022-08-05T06:12:09.716Z,17.86
2022-08-05T06:14:40.184Z,17.82
2022-08-05T06:17:22.109Z,17.82
2022-08-05T06:19:57.162Z,17.84
2022-08-05T06:22:34.394Z,17.89
2022-08-05T06:25:24.597Z,17.94
2022-08-05T06:28:11.467Z,17.96
2022-08-05T06:30:39.343Z,18.00
2022-08-05T06:33:10.028Z,18.01
2022-08-05T06:36:07.469Z,18.01
2022-08-05T06:38:36.721Z,18.02
2022-08-05T06:41:08.166Z,18.06
2022-08-05T06:43:59.115Z,18.11
2022-08-05T06:46:30.418Z,18.14
2022-08-05T06:49:00.794Z,18.19
2022-08-05T06:51:31.054Z,18.23
2022-08-05T06:54:01.977Z,18.27
2022-08-05T06:56:34.680Z,18.32
2022-08-05T06:59:09.562Z,18.30
2022-08-05T07:01:40.800Z,18.31
2022-08-05T07:04:09.609Z,18.28
2022-08-05T07:06:37.210Z,18.31
2022-08-05T07:09:05.382Z,18.34
2022-08-05T07:11:37.278Z,18.43
2022-08-05T07:14:29.513Z,18.51
2022-08-05T07:18:00.014Z,18.58
2022-08-05T07:20:32.272Z,18.68
2022-08-05T07:22:38.999Z,18.81
2022-08-05T07:25:23.058Z,18.90
2022-08-05T07:28:02.307Z,19.08
2022-08-05T07:30:38.884Z,19.18
2022-08-05T07:33:16.007Z,19.15
2022-08-05T07:36:02.938Z,19.15
2022-08-05T07:38:42.946Z,19.20
2022-08-05T07:42:07.843Z,19.32
2022-08-05T07:44:12.143Z,19.42
2022-08-05T07:46:41.929Z,19.53
2022-08-05T07:49:15.589Z,19.62
2022-08-05T07:51:53.355Z,19.62
2022-08-05T07:54:31.207Z,19.67
2022-08-05T07:57:17.695Z,19.75
2022-08-05T07:59:51.831Z,19.86
2022-08-05T08:02:26.691Z,19.79
2022-08-05T08:04:59.416Z,19.75
2022-08-05T08:07:28.503Z,19.73
2022-08-05T08:09:56.107Z,19.73
2022-08-05T08:12:35.674Z,19.69
2022-08-05T08:15:15.842Z,19.75
2022-08-05T08:17:50.780Z,19.82
2022-08-05T08:21:00.144Z,20.01
2022-08-05T08:24:00.969Z,20.17
2022-08-05T08:26:02.783Z,20.41
2022-08-05T08:28:35.672Z,20.45
2022-08-05T08:31:06.915Z,20.50
2022-08-05T08:33:37.564Z,20.58
2022-08-05T08:38:56.814Z,20.96
2022-08-05T08:41:51.398Z,20.88
2022-08-05T08:45:17.948Z,20.90
2022-08-05T08:47:47.750Z,21.10
2022-08-05T08:50:22.916Z,21.14
2022-08-05T08:53:03.433Z,21.22
2022-08-05T08:56:02.632Z,21.27
2022-08-05T08:58:37.659Z,21.34
2022-08-05T09:01:15.838Z,21.60
2022-08-05T09:03:54.421Z,21.85
2022-08-05T09:06:30.629Z,22.06
2022-08-05T09:09:03.145Z,22.23
2022-08-05T09:11:53.411Z,22.43
2022-08-05T09:14:56.989Z,22.49
2022-08-05T09:17:40.289Z,22.56
2022-08-05T09:20:05.709Z,22.73
2022-08-05T09:23:19.028Z,22.64
2022-08-05T09:26:06.220Z,22.49
2022-08-05T09:28:37.426Z,22.25
2022-08-05T09:31:43.534Z,22.03
2022-08-05T09:34:06.516Z,21.70
2022-08-05T09:36:56.257Z,21.31
2022-08-05T09:39:44.761Z,21.02
2022-08-05T09:42:23.182Z,20.82
2022-08-05T09:45:03.126Z,20.67
2022-08-05T09:47:49.018Z,20.77
2022-08-05T09:50:43.730Z,21.20
2022-08-05T09:53:22.994Z,21.79
2022-08-05T09:56:03.940Z,22.24
2022-08-05T09:58:32.470Z,22.87
2022-08-05T10:01:15.329Z,23.54
2022-08-05T10:04:18.466Z,24.12
2022-08-05T10:06:59.501Z,24.62
2022-08-05T10:09:29.968Z,24.95
2022-08-05T10:12:18.466Z,25.14
2022-08-05T10:15:38.645Z,25.08
2022-08-05T10:18:22.756Z,24.96
2022-08-05T10:21:11.771Z,25.41
2022-08-05T10:24:00.032Z,25.83
2022-08-05T10:26:32.667Z,25.86
2022-08-05T10:29:01.273Z,25.99
2022-08-05T10:32:54.653Z,25.84
2022-08-05T10:34:16.976Z,25.36
2022-08-05T10:36:46.133Z,25.11
2022-08-05T10:39:59.088Z,25.09
2022-08-05T10:42:33.568Z,25.40
2022-08-05T10:45:21.284Z,25.47
2022-08-05T10:48:29.174Z,25.21
2022-08-05T10:51:21.705Z,24.87
2022-08-05T10:54:05.701Z,24.73
2022-08-05T10:56:55.885Z,24.61
2022-08-05T11:00:04.362Z,24.70
2022-08-05T11:02:37.516Z,24.74
2022-08-05T11:05:10.717Z,24.79
2022-08-05T11:08:34.088Z,24.84
2022-08-05T11:11:52.382Z,25.10
2022-08-05T11:17:58.950Z,25.59
2022-08-05T11:20:51.024Z,25.72
2022-08-05T11:24:04.528Z,25.65
2022-08-05T11:26:33.849Z,25.29
2022-08-05T11:29:13.801Z,25.09
2022-08-05T11:31:57.004Z,24.94
2022-08-05T11:34:57.260Z,24.94
2022-08-05T11:38:30.693Z,24.81
2022-08-05T11:41:34.702Z,24.65
2022-08-05T11:44:40.182Z,24.63
2022-08-05T11:47:13.986Z,25.02
2022-08-05T11:49:49.847Z,25.13
2022-08-05T11:52:30.974Z,25.04
2022-08-05T11:55:07.555Z,24.99
2022-08-05T11:58:07.871Z,24.98
2022-08-05T12:00:32.115Z,24.82
2022-08-05T12:03:28.710Z,24.58
2022-08-05T12:06:06.193Z,24.45
2022-08-05T12:08:55.792Z,24.33
2022-08-05T12:11:40.143Z,24.23
2022-08-05T12:14:10.219Z,24.26
2022-08-05T12:16:45.160Z,24.30
2022-08-05T12:20:26.027Z,24.27
2022-08-05T12:22:01.680Z,24.31
2022-08-05T12:24:30.013Z,24.35
2022-08-05T12:26:57.760Z,24.45
2022-08-05T12:29:29.111Z,24.41
2022-08-05T12:32:07.407Z,24.44
2022-08-05T12:34:38.454Z,24.30
2022-08-05T12:37:16.263Z,24.23
2022-08-05T12:39:51.150Z,24.25
2022-08-05T12:42:21.464Z,24.37
2022-08-05T12:44:52.668Z,24.46
2022-08-05T12:47:31.086Z,24.45
2022-08-05T12:50:04.071Z,24.38
2022-08-05T12:52:39.646Z,24.27
2022-08-05T12:55:25.791Z,24.19
2022-08-05T12:58:49.756Z,24.08
2022-08-05T13:02:01.665Z,24.13
2022-08-05T13:03:42.351Z,24.12
2022-08-05T13:06:17.193Z,24.19
2022-08-05T13:08:52.212Z,24.03
2022-08-05T13:12:02.150Z,23.90
2022-08-05T13:14:35.985Z,23.93
2022-08-05T13:17:10.890Z,23.95
2022-08-05T13:19:40.363Z,23.89
2022-08-05T13:22:27.719Z,23.93
2022-08-05T13:25:00.715Z,23.95
2022-08-05T13:27:39.813Z,23.94
2022-08-05T13:30:35.314Z,23.98
2022-08-05T13:33:03.791Z,24.04
2022-08-05T13:35:42.766Z,24.19
2022-08-05T13:38:28.328Z,24.43
2022-08-05T13:41:00.440Z,24.94
2022-08-05T13:43:45.549Z,25.64
2022-08-05T13:46:30.836Z,26.37
2022-08-05T13:49:09.879Z,27.02
2022-08-05T13:51:40.921Z,27.49
2022-08-05T13:54:15.184Z,27.76
2022-08-05T13:56:50.526Z,28.15
2022-08-05T13:59:23.850Z,28.48
2022-08-05T14:01:59.068Z,28.47
2022-08-05T14:05:00.673Z,27.59
2022-08-05T14:07:59.994Z,26.63
2022-08-05T14:10:30.656Z,25.96
2022-08-05T14:12:59.370Z,26.53
2022-08-05T14:16:08.114Z,27.21
2022-08-05T14:18:19.533Z,27.39
2022-08-05T14:20:55.105Z,26.80
2022-08-05T14:23:25.592Z,27.05
2022-08-05T14:25:58.763Z,27.71
2022-08-05T14:28:30.908Z,27.40
2022-08-05T14:31:00.902Z,26.98
2022-08-05T14:33:56.676Z,27.29
2022-08-05T14:36:21.301Z,27.67
2022-08-05T14:38:51.539Z,27.44
2022-08-05T14:41:19.394Z,26.88
2022-08-05T14:43:59.127Z,26.25
2022-08-05T14:46:31.378Z,26.81
2022-08-05T14:49:06.586Z,27.43
2022-08-05T14:51:42.541Z,27.61
2022-08-05T14:54:28.854Z,26.99
2022-08-05T14:56:59.235Z,26.67
2022-08-05T14:59:29.491Z,27.03
2022-08-05T15:02:14.819Z,27.45
2022-08-05T15:04:43.814Z,27.44
2022-08-05T15:08:06.256Z,27.30
2022-08-05T15:10:01.274Z,27.49
2022-08-05T15:12:40.937Z,27.76
2022-08-05T15:15:16.375Z,28.01
2022-08-05T15:17:46.323Z,28.39
2022-08-05T15:20:24.617Z,28.67
2022-08-05T15:22:55.109Z,28.83
2022-08-05T15:25:52.812Z,28.68
2022-08-05T15:28:15.652Z,28.88
2022-08-05T15:30:46.457Z,28.96
2022-08-05T15:34:04.030Z,28.47
2022-08-05T15:36:05.565Z,28.73
2022-08-05T15:38:41.865Z,29.01
2022-08-05T15:41:22.322Z,28.88
2022-08-05T15:43:54.889Z,27.79
2022-08-05T15:46:24.806Z,27.38
2022-08-05T15:48:58.961Z,27.82
2022-08-05T15:52:10.343Z,28.17
2022-08-05T15:54:17.788Z,28.38
2022-08-05T15:56:45.018Z,28.49
2022-08-05T15:59:20.214Z,28.57
2022-08-05T16:01:52.956Z,28.33
2022-08-05T16:04:25.348Z,27.88
2022-08-05T16:06:55.533Z,27.37
2022-08-05T16:09:24.978Z,26.93
2022-08-05T16:11:54.334Z,26.43
2022-08-05T16:14:23.215Z,25.85
2022-08-05T16:16:50.963Z,25.22
2022-08-05T16:19:25.538Z,24.71
2022-08-05T16:22:07.611Z,24.32
2022-08-05T16:24:41.824Z,24.08
2022-08-05T16:27:19.600Z,23.84
2022-08-05T16:30:08.428Z,23.70
2022-08-05T16:32:50.950Z,23.48
2022-08-05T16:35:18.208Z,23.29
2022-08-05T16:38:02.322Z,23.14
2022-08-05T16:40:32.934Z,22.90
2022-08-05T16:43:00.328Z,22.85
2022-08-05T16:46:04.521Z,22.79
2022-08-05T16:48:25.606Z,22.69
2022-08-05T16:51:00.337Z,22.66
2022-08-05T16:53:31.857Z,22.55
2022-08-05T16:56:00.158Z,22.41
2022-08-05T16:58:27.349Z,22.26
2022-08-05T17:00:55.289Z,22.14
2022-08-05T17:03:22.770Z,22.12
2022-08-05T17:05:54.014Z,22.05
2022-08-05T17:08:36.409Z,21.94
2022-08-05T17:11:16.895Z,21.81
2022-08-05T17:13:46.209Z,21.66
2022-08-05T17:16:33.018Z,21.44
2022-08-05T17:19:01.682Z,21.24
2022-08-05T17:21:35.311Z,21.18
2022-08-05T17:24:28.055Z,21.19
2022-08-05T17:26:57.929Z,21.13
2022-08-05T17:29:33.428Z,21.08
2022-08-05T17:32:11.381Z,20.99
2022-08-05T17:34:44.882Z,20.91
2022-08-05T17:37:40.721Z,20.83
2022-08-05T17:40:14.238Z,20.77
2022-08-05T17:42:51.169Z,20.68
2022-08-05T17:45:29.483Z,20.59
2022-08-05T17:48:07.820Z,20.57
2022-08-05T17:50:35.292Z,20.57
2022-08-05T17:53:08.333Z,20.51
2022-08-05T17:55:38.803Z,20.46
2022-08-05T17:58:12.385Z,20.38
2022-08-05T18:00:47.699Z,20.35
2022-08-05T18:03:48.337Z,20.34
2022-08-05T18:06:12.045Z,20.26
2022-08-05T18:08:52.358Z,20.18
2022-08-05T18:11:24.456Z,20.05
2022-08-05T18:14:04.365Z,20.00
2022-08-05T18:16:51.116Z,19.99
2022-08-05T18:19:23.045Z,19.93
2022-08-05T18:22:09.568Z,19.91
2022-08-05T18:24:40.052Z,19.85
2022-08-05T18:27:12.301Z,19.81
2022-08-05T18:29:41.464Z,19.75
2022-08-05T18:32:12.946Z,19.67
2022-08-05T18:34:42.930Z,19.57
2022-08-05T18:37:12.264Z,19.47
2022-08-05T18:40:29.743Z,19.41
2022-08-05T18:42:27.479Z,19.33
2022-08-05T18:44:56.606Z,19.24
2022-08-05T18:47:26.365Z,19.17
2022-08-05T18:50:15.455Z,19.06
2022-08-05T18:52:51.093Z,18.94
2022-08-05T18:55:21.644Z,18.84
2022-08-05T18:57:53.271Z,18.78
2022-08-05T19:00:27.212Z,18.70
2022-08-05T19:03:03.287Z,18.59
2022-08-05T19:06:11.758Z,18.53
2022-08-05T19:08:18.808Z,18.46
2022-08-05T19:10:46.325Z,18.39
2022-08-05T19:13:15.890Z,18.34
2022-08-05T19:15:59.271Z,18.26
2022-08-05T19:18:28.872Z,18.17
2022-08-05T19:20:56.513Z,18.12
2022-08-05T19:24:07.773Z,18.06
2022-08-05T19:26:12.072Z,17.97
2022-08-05T19:28:44.065Z,17.90
2022-08-05T19:31:13.141Z,17.83
2022-08-05T19:33:48.261Z,17.73
2022-08-05T19:36:29.304Z,17.63
2022-08-05T19:39:01.571Z,17.53
2022-08-05T19:41:58.323Z,17.48
2022-08-05T19:44:19.584Z,17.41
2022-08-05T19:46:47.342Z,17.36
2022-08-05T19:49:18.121Z,17.30
2022-08-05T19:52:04.733Z,17.25
2022-08-05T19:54:35.698Z,17.20
2022-08-05T19:57:09.500Z,17.19
2022-08-05T20:00:00.198Z,17.17
2022-08-05T20:02:31.346Z,17.14
2022-08-05T20:04:59.974Z,17.11
2022-08-05T20:07:45.816Z,17.07
2022-08-05T20:10:19.468Z,16.99
2022-08-05T20:12:49.742Z,16.93
2022-08-05T20:15:23.364Z,16.87
2022-08-05T20:18:10.973Z,16.78
2022-08-05T20:20:57.164Z,16.71
2022-08-05T20:23:39.960Z,16.64
2022-08-05T20:26:15.288Z,16.56
2022-08-05T20:28:55.619Z,16.51
2022-08-05T20:31:42.123Z,16.48
2022-08-05T20:34:15.546Z,16.45
2022-08-05T20:36:43.216Z,16.40
2022-08-05T20:39:16.349Z,16.36
2022-08-05T20:41:45.296Z,16.33
2022-08-05T20:44:29.910Z,16.29
2022-08-05T20:47:04.883Z,16.22
2022-08-05T20:49:39.276Z,16.18
2022-08-05T20:52:08.900Z,16.13
2022-08-05T20:54:42.847Z,16.10
2022-08-05T20:57:42.715Z,16.06
2022-08-05T21:00:41.204Z,16.02
2022-08-05T21:03:06.866Z,15.95
2022-08-05T21:05:53.390Z,15.90
2022-08-05T21:08:26.714Z,15.86
2022-08-05T21:11:12.566Z,15.82
2022-08-05T21:13:47.909Z,15.78
2022-08-05T21:16:30.317Z,15.71
2022-08-05T21:19:01.933Z,15.64
2022-08-05T21:21:44.170Z,15.59
2022-08-05T21:24:19.694Z,15.55
2022-08-05T21:26:57.844Z,15.53
2022-08-05T21:29:31.931Z,15.50
2022-08-05T21:32:04.350Z,15.45
2022-08-05T21:34:33.055Z,15.41
2022-08-05T21:37:02.870Z,15.37
2022-08-05T21:39:30.834Z,15.33
2022-08-05T21:42:02.457Z,15.31
2022-08-05T21:44:31.763Z,15.28
2022-08-05T21:47:00.210Z,15.24
2022-08-05T21:49:48.501Z,15.20
2022-08-05T21:52:27.060Z,15.16
2022-08-05T21:54:57.790Z,15.13
2022-08-05T21:57:34.924Z,15.10
2022-08-05T22:00:11.167Z,15.08
2022-08-05T22:02:42.912Z,15.06
2022-08-05T22:05:13.086Z,15.03
2022-08-05T22:07:59.190Z,15.01
2022-08-05T22:10:28.110Z,14.99
2022-08-05T22:12:58.899Z,14.96
2022-08-05T22:16:00.341Z,14.93
2022-08-05T22:18:25.740Z,14.90
2022-08-05T22:20:53.734Z,14.86
2022-08-05T22:24:01.900Z,14.82
2022-08-05T22:26:50.559Z,14.80
2022-08-05T22:29:26.482Z,14.76
2022-08-05T22:31:55.352Z,14.72
2022-08-05T22:34:29.064Z,14.69
2022-08-05T22:36:58.723Z,14.64
2022-08-05T22:39:32.957Z,14.64
2022-08-05T22:42:11.799Z,14.61
2022-08-05T22:44:42.746Z,14.60
2022-08-05T22:47:29.684Z,14.56
2022-08-05T22:50:21.720Z,14.51
2022-08-05T22:52:52.692Z,14.48
2022-08-05T22:55:22.642Z,14.43
2022-08-05T22:57:53.477Z,14.40
2022-08-05T23:00:24.485Z,14.36
2022-08-05T23:02:54.098Z,14.31
2022-08-05T23:05:22.715Z,14.28
2022-08-05T23:07:51.633Z,14.25
2022-08-05T23:10:23.959Z,14.22
2022-08-05T23:12:55.255Z,14.19
2022-08-05T23:15:35.389Z,14.14
2022-08-05T23:18:06.064Z,14.08
2022-08-05T23:20:39.581Z,14.05
2022-08-05T23:23:08.198Z,14.02
2022-08-05T23:25:54.716Z,13.99
2022-08-05T23:28:29.268Z,13.97
2022-08-05T23:31:07.100Z,13.96
2022-08-05T23:34:04.605Z,13.92
2022-08-05T23:36:38.482Z,13.91
2022-08-05T23:39:08.009Z,13.88
2022-08-05T23:41:40.891Z,13.85
2022-08-05T23:44:08.974Z,13.82
2022-08-05T23:46:37.512Z,13.80
2022-08-05T23:49:17.100Z,13.77
2022-08-05T23:52:08.418Z,13.75
2022-08-05T23:54:38.615Z,13.72
2022-08-05T23:57:07.708Z,13.67
